createdAt,value
2022-11-16T00:02:22.637Z,14.50
2022-11-16T00:06:39.264Z,15.23
2022-11-16T00:10:55.531Z,14.18
2022-11-16T00:15:11.794Z,14.38
2022-11-16T00:19:28.795Z,15.05
2022-11-16T00:23:45.030Z,16.95
2022-11-16T00:28:01.297Z,16.23
2022-11-16T00:32:17.439Z,16.67
2022-11-16T00:36:33.573Z,16.65
2022-11-16T00:40:49.821Z,16.83
2022-11-16T00:45:06.356Z,15.75
2022-11-16T00:49:22.584Z,16.50
2022-11-16T00:53:39.086Z,16.80
2022-11-16T00:57:55.309Z,16.80
2022-11-16T01:02:12.953Z,15.60
2022-11-16T01:06:29.124Z,17.23
2022-11-16T01:10:45.402Z,17.25
2022-11-16T01:15:01.562Z,17.08
2022-11-16T01:19:17.726Z,16.67
2022-11-16T01:23:33.913Z,16.80
2022-11-16T01:27:50.125Z,18.58
2022-11-16T01:32:06.838Z,18.10
2022-11-16T01:36:23.339Z,18.60
2022-11-16T01:40:39.569Z,18.27
2022-11-16T01:45:00.347Z,18.52
2022-11-16T01:49:20.737Z,18.85
2022-11-16T01:53:37.990Z,19.52
2022-11-16T01:57:54.873Z,20.05
2022-11-16T02:02:11.157Z,18.55
2022-11-16T02:06:32.517Z,20.83
2022-11-16T02:10:57.577Z,19.48
2022-11-16T02:15:35.932Z,19.33
2022-11-16T02:20:13.858Z,19.85
2022-11-16T02:24:49.350Z,18.87
2022-11-16T02:29:12.073Z,18.60
2022-11-16T02:33:35.631Z,18.73
2022-11-16T02:37:56.642Z,19.50
2022-11-16T02:42:17.550Z,17.25
2022-11-16T02:46:37.658Z,18.83
2022-11-16T02:50:54.197Z,17.15
2022-11-16T02:55:10.357Z,16.55
2022-11-16T02:59:42.459Z,16.05
2022-11-16T03:04:16.536Z,17.37
2022-11-16T03:08:38.720Z,16.42
2022-11-16T03:12:55.007Z,15.82
2022-11-16T03:17:21.703Z,15.95
2022-11-16T03:21:45.698Z,16.45
2022-11-16T03:26:05.449Z,16.37
2022-11-16T03:30:32.196Z,15.85
2022-11-16T03:35:02.637Z,16.08
2022-11-16T03:39:28.892Z,15.93
2022-11-16T03:43:45.752Z,17.05
2022-11-16T03:48:01.943Z,16.02
2022-11-16T03:52:19.248Z,14.80
2022-11-16T03:56:35.370Z,16.12
2022-11-16T04:00:51.712Z,16.05
2022-11-16T04:05:26.628Z,15.07
2022-11-16T04:10:01.483Z,14.80
2022-11-16T04:14:41.683Z,15.32
2022-11-16T04:19:16.154Z,15.00
2022-11-16T04:23:51.203Z,15.27
2022-11-16T04:28:13.783Z,15.70
2022-11-16T04:32:48.888Z,15.90
2022-11-16T04:37:23.536Z,15.98
2022-11-16T04:41:58.268Z,14.93
2022-11-16T04:46:37.615Z,13.82
2022-11-16T04:50:53.838Z,13.75
2022-11-16T04:55:10.632Z,13.70
2022-11-16T04:59:27.112Z,13.38
2022-11-16T05:03:43.345Z,13.30
2022-11-16T05:07:59.581Z,12.60
2022-11-16T05:12:19.032Z,12.77
2022-11-16T05:16:35.265Z,13.68
2022-11-16T05:21:00.852Z,12.75
2022-11-16T05:25:17.011Z,12.25
2022-11-16T05:29:33.934Z,12.50
2022-11-16T05:33:50.051Z,11.55
2022-11-16T05:38:06.389Z,12.05
2022-11-16T05:42:22.829Z,11.10
2022-11-16T05:46:39.182Z,12.45
2022-11-16T05:51:00.102Z,12.37
2022-11-16T05:55:16.363Z,11.85
2022-11-16T05:59:32.595Z,11.98
2022-11-16T06:03:48.800Z,11.65
2022-11-16T06:08:05.710Z,11.12
2022-11-16T06:12:21.805Z,12.13
2022-11-16T06:16:37.982Z,11.70
2022-11-16T06:20:54.362Z,11.85
2022-11-16T06:25:11.219Z,12.20
2022-11-16T06:29:27.390Z,12.23
2022-11-16T06:33:43.536Z,12.52
2022-11-16T06:37:59.728Z,11.55
2022-11-16T06:42:15.857Z,12.13
2022-11-16T06:46:32.851Z,12.13
2022-11-16T06:50:50.065Z,12.40
2022-11-16T06:55:06.685Z,12.02
2022-11-16T06:59:22.881Z,11.05
2022-11-16T07:03:39.022Z,11.40
2022-11-16T07:07:58.584Z,11.00
2022-11-16T07:12:14.825Z,10.95
2022-11-16T07:16:31.116Z,11.25
2022-11-16T07:20:47.289Z,11.07
2022-11-16T07:25:03.590Z,11.20
2022-11-16T07:29:21.719Z,11.63
2022-11-16T07:33:38.174Z,11.52
2022-11-16T07:37:54.321Z,11.73
2022-11-16T07:42:12.168Z,11.95
2022-11-16T07:51:07.154Z,12.48
2022-11-16T07:55:25.849Z,11.30
2022-11-16T07:59:42.001Z,11.95
2022-11-16T08:03:58.525Z,12.05
2022-11-16T08:08:14.636Z,12.95
2022-11-16T08:12:31.368Z,12.48
2022-11-16T08:16:47.567Z,12.65
2022-11-16T08:21:04.866Z,13.10
2022-11-16T08:25:20.945Z,13.10
2022-11-16T08:29:37.134Z,14.40
2022-11-16T08:33:53.521Z,13.25
2022-11-16T08:38:09.631Z,13.02
2022-11-16T08:42:25.918Z,14.52
2022-11-16T08:46:42.030Z,14.05
2022-11-16T08:51:20.594Z,15.15
2022-11-16T08:55:37.344Z,14.05
2022-11-16T08:59:53.470Z,14.95
2022-11-16T09:04:09.742Z,15.68
2022-11-16T09:08:25.933Z,16.45
2022-11-16T09:12:42.200Z,15.25
2022-11-16T09:16:58.422Z,16.60
2022-11-16T09:21:23.374Z,17.05
2022-11-16T09:25:39.565Z,17.55
2022-11-16T09:29:55.804Z,16.05
2022-11-16T09:34:12.286Z,17.73
2022-11-16T09:38:40.581Z,17.37
2022-11-16T09:43:29.320Z,15.68
2022-11-16T09:48:02.492Z,17.35
2022-11-16T09:52:41.245Z,16.92
2022-11-16T09:57:06.770Z,18.33
2022-11-16T10:01:35.265Z,17.10
2022-11-16T10:06:05.622Z,16.80
2022-11-16T10:10:35.072Z,15.70
2022-11-16T10:15:26.712Z,16.80
2022-11-16T10:20:07.625Z,16.25
2022-11-16T10:24:42.689Z,15.77
2022-11-16T10:29:33.929Z,15.95
2022-11-16T10:33:52.158Z,16.45
2022-11-16T10:38:17.399Z,17.55
2022-11-16T10:42:37.299Z,16.02
2022-11-16T10:47:23.205Z,15.27
2022-11-16T10:51:39.465Z,17.35
2022-11-16T10:56:17.854Z,17.17
2022-11-16T11:00:47.079Z,17.15
2022-11-16T11:05:20.444Z,16.90
2022-11-16T11:14:19.945Z,17.10
2022-11-16T11:18:36.111Z,15.95
2022-11-16T11:22:57.236Z,16.98
2022-11-16T11:27:13.660Z,16.08
2022-11-16T11:31:50.787Z,15.88
2022-11-16T11:36:19.387Z,16.10
2022-11-16T11:40:36.371Z,17.50
2022-11-16T11:44:57.357Z,16.58
2022-11-16T11:49:33.920Z,17.58
2022-11-16T11:53:58.877Z,17.33
2022-11-16T11:58:19.639Z,15.32
2022-11-16T12:02:47.827Z,16.90
2022-11-16T12:07:32.025Z,16.60
2022-11-16T12:12:16.324Z,15.50
2022-11-16T12:16:35.576Z,14.77
2022-11-16T12:20:57.691Z,16.27
2022-11-16T12:25:35.387Z,16.02
2022-11-16T12:30:03.548Z,15.13
2022-11-16T12:34:37.832Z,16.27
2022-11-16T12:39:31.713Z,15.68
2022-11-16T12:48:38.517Z,14.27
2022-11-16T12:53:00.672Z,15.07
2022-11-16T12:57:57.891Z,15.38
2022-11-16T13:02:51.537Z,14.95
2022-11-16T13:07:26.296Z,15.38
2022-11-16T13:11:47.356Z,15.15
2022-11-16T13:16:05.558Z,13.35
2022-11-16T13:20:32.092Z,13.35
2022-11-16T13:24:58.752Z,14.50
2022-11-16T13:29:53.330Z,13.52
2022-11-16T13:34:23.068Z,14.02
2022-11-16T13:38:53.360Z,14.20
2022-11-16T13:43:13.026Z,13.43
2022-11-16T13:47:30.718Z,13.93
2022-11-16T13:52:11.324Z,13.80
2022-11-16T13:56:49.177Z,14.57
2022-11-16T14:01:09.141Z,14.35
2022-11-16T14:05:34.236Z,13.52
2022-11-16T14:09:50.611Z,13.23
2022-11-16T14:14:10.425Z,11.65
2022-11-16T14:18:37.351Z,12.55
2022-11-16T14:23:17.001Z,13.10
2022-11-16T14:27:43.131Z,12.18
2022-11-16T14:32:01.698Z,11.77
2022-11-16T14:36:18.130Z,13.52
2022-11-16T14:40:49.322Z,12.00
2022-11-16T14:45:14.378Z,13.40
2022-11-16T14:49:33.675Z,13.18
2022-11-16T14:53:53.324Z,12.65
2022-11-16T14:58:16.629Z,11.75
2022-11-16T15:02:33.365Z,12.32
2022-11-16T15:07:02.606Z,12.82
2022-11-16T15:11:48.514Z,12.20
2022-11-16T15:16:16.387Z,12.18
2022-11-16T15:20:38.021Z,12.50
2022-11-16T15:25:03.008Z,12.32
2022-11-16T15:29:21.255Z,12.10
2022-11-16T15:33:42.964Z,12.25
2022-11-16T15:38:06.577Z,12.63
2022-11-16T15:42:23.129Z,13.62
2022-11-16T15:46:40.137Z,14.30
2022-11-16T15:51:05.258Z,15.35
2022-11-16T15:55:41.916Z,15.75
2022-11-16T15:59:58.412Z,14.80
2022-11-16T16:04:18.955Z,15.20
2022-11-16T16:08:38.876Z,15.27
2022-11-16T16:12:57.860Z,16.27
2022-11-16T16:17:24.817Z,16.12
2022-11-16T16:21:47.106Z,14.93
2022-11-16T16:26:06.167Z,16.98
2022-11-16T16:30:22.460Z,16.50
2022-11-16T16:34:42.177Z,16.77
2022-11-16T16:38:58.725Z,17.17
2022-11-16T16:43:15.044Z,16.60
2022-11-16T16:47:31.658Z,17.12
2022-11-16T16:51:47.974Z,16.98
2022-11-16T16:56:04.364Z,16.05
2022-11-16T17:00:20.860Z,15.82
2022-11-16T17:04:37.194Z,14.57
2022-11-16T17:08:53.639Z,16.25
2022-11-16T17:13:11.047Z,16.23
2022-11-16T17:17:27.437Z,16.25
2022-11-16T17:21:43.965Z,15.45
2022-11-16T17:26:02.932Z,15.77
2022-11-16T17:30:19.291Z,18.95
2022-11-16T17:34:35.688Z,17.83
2022-11-16T17:38:52.135Z,16.95
2022-11-16T17:43:08.342Z,19.00
2022-11-16T17:47:24.671Z,22.00
2022-11-16T17:51:41.071Z,22.75
2022-11-16T17:55:57.348Z,24.25
2022-11-16T18:00:14.269Z,27.37
2022-11-16T18:04:30.491Z,27.75
2022-11-16T18:08:47.210Z,26.55
2022-11-16T18:13:04.715Z,28.23
2022-11-16T18:17:20.924Z,26.00
2022-11-16T18:21:40.592Z,25.15
2022-11-16T18:25:56.943Z,23.02
2022-11-16T18:30:13.877Z,25.15
2022-11-16T18:34:30.021Z,21.85
2022-11-16T18:38:46.542Z,19.65
2022-11-16T18:43:02.736Z,18.80
2022-11-16T18:47:19.312Z,19.92
2022-11-16T18:51:35.500Z,20.35
2022-11-16T18:55:57.651Z,22.08
2022-11-16T19:00:15.380Z,20.97
2022-11-16T19:04:31.575Z,23.55
2022-11-16T19:08:54.999Z,24.50
2022-11-16T19:13:13.305Z,25.35
2022-11-16T19:17:29.479Z,26.12
2022-11-16T19:21:45.652Z,23.58
2022-11-16T19:26:05.003Z,25.25
2022-11-16T19:30:21.366Z,23.75
2022-11-16T19:34:37.842Z,24.33
2022-11-16T19:38:55.591Z,21.55
2022-11-16T19:43:11.883Z,21.12
2022-11-16T19:47:29.637Z,21.37
2022-11-16T19:51:45.784Z,21.90
2022-11-16T19:56:03.580Z,20.33
2022-11-16T20:00:24.433Z,20.50
2022-11-16T20:05:00.829Z,20.30
2022-11-16T20:09:17.001Z,20.20
2022-11-16T20:13:33.572Z,19.62
2022-11-16T20:17:50.095Z,21.98
2022-11-16T20:22:06.246Z,21.40
2022-11-16T20:26:25.626Z,22.55
2022-11-16T20:30:48.567Z,24.30
2022-11-16T20:35:04.858Z,24.27
2022-11-16T20:39:21.986Z,23.50
2022-11-16T20:43:42.475Z,25.70
2022-11-16T20:48:00.247Z,24.73
2022-11-16T20:52:16.417Z,24.45
2022-11-16T20:56:33.094Z,22.52
2022-11-16T21:00:50.009Z,22.10
2022-11-16T21:05:06.619Z,21.05
2022-11-16T21:09:23.461Z,21.20
2022-11-16T21:13:58.665Z,21.95
2022-11-16T21:18:14.892Z,20.92
2022-11-16T21:22:32.388Z,21.70
2022-11-16T21:26:49.124Z,20.27
2022-11-16T21:31:13.431Z,20.08
2022-11-16T21:35:29.757Z,20.62
2022-11-16T21:39:46.183Z,18.62
2022-11-16T21:44:02.445Z,18.70
2022-11-16T21:48:18.708Z,18.98
2022-11-16T21:52:34.974Z,18.27
2022-11-16T21:56:51.348Z,17.42
2022-11-16T22:01:07.876Z,17.48
2022-11-16T22:05:42.812Z,18.27
2022-11-16T22:10:02.818Z,17.23
2022-11-16T22:14:20.291Z,16.12
2022-11-16T22:18:36.801Z,16.87
2022-11-16T22:22:52.979Z,17.20
2022-11-16T22:27:09.704Z,16.02
2022-11-16T22:31:26.363Z,15.63
2022-11-16T22:35:42.667Z,15.98
2022-11-16T22:39:58.862Z,15.95
2022-11-16T22:44:15.339Z,16.70
2022-11-16T22:48:33.672Z,17.08
2022-11-16T22:52:49.992Z,16.52
2022-11-16T22:57:06.494Z,16.95
2022-11-16T23:01:22.741Z,17.05
2022-11-16T23:05:39.008Z,16.58
2022-11-16T23:09:55.232Z,18.62
2022-11-16T23:14:32.439Z,16.52
2022-11-16T23:18:48.673Z,17.25
2022-11-16T23:23:23.516Z,16.70
2022-11-16T23:27:53.446Z,17.58
2022-11-16T23:32:09.742Z,16.52
2022-11-16T23:36:25.896Z,16.35
2022-11-16T23:40:42.215Z,15.77
2022-11-16T23:44:58.461Z,18.90
2022-11-16T23:49:14.708Z,16.95
2022-11-16T23:53:30.920Z,17.80
2022-11-16T23:57:47.105Z,17.02
